Time;durP1;ratioP1;P1;durP2;ratioP2;P2;SDS_P1;SDS_P2;PMS_P1;PMS_P2;Temp;Humidity;BMP_temperature;BMP_pressure;BME280_temperature;BME280_humidity;BME280_pressure;Samples;Min_cycle;Max_cycle;Signal;HPM_P1;HPM_P2
2023/10/20 00:00:37;;;;;;;13.27;7.70;;;7.50;99.90;;;;;;5047719;28;20452;-86
2023/10/20 00:03:03;;;;;;;14.50;7.00;;;7.60;99.90;;;;;;5042675;28;20079;-86
2023/10/20 00:05:30;;;;;;;14.98;7.35;;;7.50;99.90;;;;;;5047983;28;20415;-86
2023/10/20 00:07:57;;;;;;;12.52;7.15;;;7.50;99.90;;;;;;5052139;28;20045;-86
2023/10/20 00:10:24;;;;;;;14.85;7.68;;;7.50;99.90;;;;;;5041296;28;20044;-86
2023/10/20 00:12:50;;;;;;;13.15;7.80;;;7.50;99.90;;;;;;5054041;28;20036;-86
2023/10/20 00:15:17;;;;;;;13.20;7.28;;;7.50;99.90;;;;;;5054414;28;20520;-86
2023/10/20 00:17:44;;;;;;;12.80;7.25;;;7.50;99.90;;;;;;5041079;28;20099;-86
2023/10/20 00:20:11;;;;;;;14.30;8.00;;;7.50;99.90;;;;;;5054446;28;20037;-85
2023/10/20 00:22:40;;;;;;;15.05;8.07;;;7.50;99.90;;;;;;5054391;28;20037;-86
2023/10/20 00:25:07;;;;;;;15.15;7.95;;;7.60;99.90;;;;;;5042078;28;20041;-86
2023/10/20 00:27:34;;;;;;;14.57;7.47;;;7.60;99.90;;;;;;5053746;28;20048;-86
2023/10/20 00:30:02;;;;;;;16.65;7.88;;;7.70;99.90;;;;;;5041031;28;20041;-86
2023/10/20 00:32:30;;;;;;;15.45;8.05;;;7.50;99.90;;;;;;5070261;28;20051;-86
2023/10/20 00:34:57;;;;;;;15.75;8.32;;;7.60;99.90;;;;;;5070424;28;20044;-86
2023/10/20 00:37:24;;;;;;;16.50;8.55;;;8.00;99.90;;;;;;5054133;28;20047;-86
2023/10/20 00:39:50;;;;;;;15.55;9.05;;;7.50;99.90;;;;;;5054255;28;20056;-85
2023/10/20 00:42:17;;;;;;;17.27;9.00;;;7.60;99.90;;;;;;5053663;28;20438;-86
2023/10/20 00:44:44;;;;;;;17.63;8.55;;;8.00;99.90;;;;;;5052336;28;20191;-86
2023/10/20 00:47:10;;;;;;;19.70;9.43;;;8.20;99.90;;;;;;5042370;28;20399;-86
2023/10/20 00:49:39;;;;;;;18.35;9.07;;;8.10;99.90;;;;;;5058851;28;20033;-86
2023/10/20 00:52:07;;;;;;;21.05;10.00;;;7.50;99.90;;;;;;5044746;28;20056;-86
2023/10/20 00:54:34;;;;;;;18.33;9.38;;;7.50;99.90;;;;;;5039989;28;20134;-86
2023/10/20 00:57:01;;;;;;;20.98;10.32;;;7.60;99.90;;;;;;5053789;28;20045;-86
2023/10/20 00:59:27;;;;;;;18.33;9.57;;;8.20;99.90;;;;;;5053331;28;20446;-86
2023/10/20 01:01:54;;;;;;;21.95;10.43;;;7.60;99.90;;;;;;5051006;28;20047;-86
2023/10/20 01:04:21;;;;;;;20.80;9.98;;;7.50;99.90;;;;;;5051062;28;20064;-86
2023/10/20 01:06:49;;;;;;;21.52;10.55;;;7.50;99.90;;;;;;5047359;28;20046;-86
2023/10/20 01:09:26;;;;;;;21.27;10.60;;;7.90;99.90;;;;;;5036619;28;20033;-86
2023/10/20 01:11:53;;;;;;;18.25;9.80;;;7.60;99.90;;;;;;5046926;28;20454;-86
2023/10/20 01:14:20;;;;;;;18.90;10.02;;;7.60;99.90;;;;;;5043265;28;20041;-85
2023/10/20 01:16:47;;;;;;;20.88;9.38;;;7.50;99.90;;;;;;5051096;28;20037;-86
2023/10/20 01:19:14;;;;;;;21.13;10.80;;;7.50;99.90;;;;;;5049834;28;20045;-86
2023/10/20 01:21:41;;;;;;;19.48;9.73;;;7.70;99.90;;;;;;5050034;28;20103;-86
2023/10/20 01:24:08;;;;;;;18.15;9.98;;;7.50;99.90;;;;;;5052797;28;20075;-86
2023/10/20 01:26:35;;;;;;;18.83;9.55;;;7.50;99.90;;;;;;5066534;28;20125;-86
2023/10/20 01:29:05;;;;;;;20.35;9.93;;;7.50;99.90;;;;;;5038998;28;20037;-86
2023/10/20 01:31:32;;;;;;;19.35;9.60;;;7.90;99.90;;;;;;5037884;28;20129;-86
2023/10/20 01:33:58;;;;;;;18.10;9.27;;;7.80;99.90;;;;;;5050397;28;20494;-86
2023/10/20 01:36:25;;;;;;;18.98;9.70;;;7.50;99.90;;;;;;5049944;28;20079;-86
2023/10/20 01:38:51;;;;;;;16.08;9.55;;;7.60;99.90;;;;;;5033918;28;20045;-86
2023/10/20 01:41:19;;;;;;;18.90;10.10;;;7.60;99.90;;;;;;5049441;28;20045;-86
2023/10/20 01:43:46;;;;;;;15.50;9.20;;;7.70;99.90;;;;;;5056899;28;20046;-87
2023/10/20 01:46:12;;;;;;;18.48;9.43;;;7.60;99.90;;;;;;5052960;28;20041;-86
2023/10/20 01:48:39;;;;;;;17.20;9.50;;;7.60;99.90;;;;;;5049385;28;20034;-86
2023/10/20 01:51:06;;;;;;;19.67;9.70;;;7.40;99.90;;;;;;5065073;28;20460;-86
2023/10/20 01:53:32;;;;;;;17.83;10.02;;;8.30;99.90;;;;;;5066912;28;20037;-87
2023/10/20 01:55:59;;;;;;;21.27;9.90;;;8.20;99.90;;;;;;5059740;28;20041;-86
2023/10/20 01:58:26;;;;;;;19.50;9.10;;;7.60;99.90;;;;;;5069297;28;20437;-86
2023/10/20 02:00:52;;;;;;;20.20;10.13;;;7.70;99.90;;;;;;5059720;28;20041;-87
2023/10/20 02:03:19;;;;;;;16.40;9.57;;;7.70;99.90;;;;;;5034948;28;20038;-86
2023/10/20 02:05:46;;;;;;;18.30;8.93;;;7.90;99.90;;;;;;5053830;28;20042;-86
2023/10/20 02:08:13;;;;;;;19.92;9.43;;;7.90;99.90;;;;;;5053599;28;20061;-86
2023/10/20 02:10:42;;;;;;;20.45;9.93;;;7.60;99.90;;;;;;5045596;28;20068;-85
2023/10/20 02:13:10;;;;;;;23.08;9.25;;;7.60;99.90;;;;;;5052584;28;20037;-86
2023/10/20 02:15:36;;;;;;;17.40;8.90;;;7.60;99.90;;;;;;5054258;28;20129;-86
2023/10/20 02:18:03;;;;;;;21.67;10.02;;;7.60;99.90;;;;;;5052488;28;20136;-85
2023/10/20 02:20:30;;;;;;;20.65;10.30;;;7.60;99.90;;;;;;5039727;28;20037;-86
2023/10/20 02:22:57;;;;;;;16.58;9.48;;;7.60;99.90;;;;;;5050893;28;20098;-86
2023/10/20 02:25:23;;;;;;;18.50;10.18;;;7.60;99.90;;;;;;5052335;28;20474;-86
2023/10/20 02:27:50;;;;;;;17.17;9.75;;;7.60;99.90;;;;;;5061783;28;20042;-86
2023/10/20 02:30:17;;;;;;;18.25;10.05;;;7.60;99.90;;;;;;5035443;28;20041;-86
2023/10/20 02:32:44;;;;;;;18.08;9.60;;;7.50;99.90;;;;;;5044771;28;20038;-86
2023/10/20 02:35:11;;;;;;;23.55;10.00;;;7.50;99.90;;;;;;5046120;28;20092;-86
2023/10/20 02:37:37;;;;;;;21.95;11.60;;;7.90;99.90;;;;;;5042609;28;20044;-86
2023/10/20 02:40:05;;;;;;;22.17;10.35;;;7.80;99.90;;;;;;5071556;28;20041;-86
2023/10/20 02:42:32;;;;;;;17.55;10.07;;;7.50;99.90;;;;;;5062692;28;20429;-85
2023/10/20 02:44:59;;;;;;;21.02;10.13;;;7.80;99.90;;;;;;5054356;28;20048;-86
2023/10/20 02:47:26;;;;;;;19.25;9.95;;;7.50;99.90;;;;;;5042055;28;20408;-86
2023/10/20 02:49:56;;;;;;;20.30;10.30;;;7.50;99.90;;;;;;5048207;28;20053;-86
2023/10/20 02:52:23;;;;;;;20.08;9.90;;;7.70;99.90;;;;;;5052667;28;20130;-86
2023/10/20 02:54:53;;;;;;;20.33;9.23;;;7.50;99.90;;;;;;5052515;28;20077;-85
2023/10/20 02:57:21;;;;;;;20.50;9.57;;;8.00;99.90;;;;;;5052872;28;20048;-86
2023/10/20 02:59:49;;;;;;;18.73;9.52;;;7.50;99.90;;;;;;5052171;28;20050;-85
2023/10/20 03:02:17;;;;;;;20.02;10.38;;;7.40;99.90;;;;;;5044338;28;20096;-86
2023/10/20 03:04:43;;;;;;;16.55;9.27;;;7.40;99.90;;;;;;5052234;28;20476;-86
2023/10/20 03:07:10;;;;;;;19.58;9.45;;;7.40;99.90;;;;;;5055626;28;20086;-86
2023/10/20 03:09:37;;;;;;;17.58;9.45;;;7.40;99.90;;;;;;5039107;28;20048;-86
2023/10/20 03:12:03;;;;;;;18.95;9.18;;;7.40;99.90;;;;;;5057902;28;20037;-85
2023/10/20 03:14:31;;;;;;;18.33;9.43;;;7.40;99.90;;;;;;5051782;28;20038;-86
2023/10/20 03:16:58;;;;;;;18.15;8.85;;;7.40;99.90;;;;;;5034336;28;20050;-86
2023/10/20 03:19:24;;;;;;;17.27;9.55;;;7.90;99.90;;;;;;5050217;28;20501;-86
2023/10/20 03:21:52;;;;;;;17.65;8.35;;;7.60;99.90;;;;;;5040836;28;20050;-85
2023/10/20 03:24:19;;;;;;;16.25;8.82;;;7.40;99.90;;;;;;5048892;28;20124;-86
2023/10/20 03:26:45;;;;;;;20.80;9.30;;;7.40;99.90;;;;;;5044812;28;20117;-85
2023/10/20 03:29:12;;;;;;;17.30;8.77;;;7.90;99.90;;;;;;5051459;28;20049;-85
2023/10/20 03:31:38;;;;;;;18.60;9.27;;;7.40;99.90;;;;;;5048169;28;20053;-86
2023/10/20 03:34:05;;;;;;;17.85;9.07;;;7.70;99.90;;;;;;5047724;28;20048;-85
2023/10/20 03:36:32;;;;;;;17.67;8.43;;;7.60;99.90;;;;;;5032493;28;20080;-85
2023/10/20 03:38:58;;;;;;;16.98;8.25;;;7.30;99.90;;;;;;5053393;28;20045;-86
2023/10/20 03:41:25;;;;;;;14.10;8.25;;;7.30;99.90;;;;;;5044067;28;20037;-86
2023/10/20 03:43:53;;;;;;;15.27;8.38;;;7.30;99.90;;;;;;5054767;28;20489;-86
2023/10/20 03:46:20;;;;;;;15.98;8.63;;;7.30;99.90;;;;;;5049426;28;20601;-85
2023/10/20 03:48:46;;;;;;;16.50;8.23;;;7.40;99.90;;;;;;5048313;28;20049;-85
2023/10/20 03:51:13;;;;;;;14.73;7.97;;;7.30;99.90;;;;;;5047260;28;20509;-86
2023/10/20 03:53:52;;;;;;;14.88;7.78;;;7.40;99.90;;;;;;5050852;28;20041;-84
2023/10/20 03:56:19;;;;;;;14.73;7.22;;;7.30;99.90;;;;;;5054710;28;20044;-85
2023/10/20 03:58:46;;;;;;;14.40;7.53;;;7.30;99.90;;;;;;5043130;28;20045;-85
2023/10/20 04:01:13;;;;;;;15.23;7.47;;;7.50;99.90;;;;;;5066268;28;20048;-85
2023/10/20 04:03:40;;;;;;;13.57;7.40;;;7.40;99.90;;;;;;5051715;28;20120;-85
2023/10/20 04:06:11;;;;;;;15.70;7.65;;;7.30;99.90;;;;;;5053372;28;20072;-85
2023/10/20 04:08:38;;;;;;;11.90;6.72;;;7.40;99.90;;;;;;5063796;28;20029;-85
2023/10/20 04:11:05;;;;;;;13.60;7.15;;;7.70;99.90;;;;;;5059262;28;20049;-85
2023/10/20 04:13:32;;;;;;;12.98;6.70;;;7.60;99.90;;;;;;5042439;28;20407;-85
2023/10/20 04:16:11;;;;;;;11.82;6.28;;;7.40;99.90;;;;;;5043274;28;20042;-86
2023/10/20 04:18:43;;;;;;;10.45;6.30;;;7.40;99.90;;;;;;5036495;28;20053;-85
2023/10/20 04:21:11;;;;;;;10.23;5.95;;;7.40;99.90;;;;;;5063233;28;20487;-85
2023/10/20 04:23:38;;;;;;;11.98;6.10;;;7.40;99.90;;;;;;5038426;28;20038;-85
2023/10/20 04:26:21;;;;;;;11.00;6.47;;;7.40;99.90;;;;;;5051221;28;20037;-85
2023/10/20 04:28:51;;;;;;;10.65;6.22;;;7.40;99.90;;;;;;5041293;28;20091;-86
2023/10/20 04:44:58;;;;;;;9.82;5.22;;;7.40;99.90;;;;;;5059817;28;20049;-86
2023/10/20 04:57:53;;;;;;;9.45;4.63;;;7.40;99.90;;;;;;5056534;28;20041;-85
2023/10/20 05:08:16;;;;;;;8.18;4.68;;;7.50;99.90;;;;;;5055103;28;20419;-85
2023/10/20 05:10:47;;;;;;;8.95;4.47;;;7.40;99.90;;;;;;5035772;28;20070;-84
2023/10/20 05:13:13;;;;;;;7.28;4.15;;;7.50;99.90;;;;;;5040658;28;20069;-84
2023/10/20 05:15:40;;;;;;;8.55;4.07;;;7.50;99.90;;;;;;5043089;28;20580;-84
2023/10/20 05:18:14;;;;;;;7.90;4.47;;;7.40;99.90;;;;;;5041234;28;20072;-84
2023/10/20 05:20:42;;;;;;;8.82;4.13;;;7.70;99.90;;;;;;5045370;28;20199;-85
2023/10/20 05:23:14;;;;;;;10.30;4.38;;;7.60;99.90;;;;;;5047322;28;20045;-84
2023/10/20 05:25:51;;;;;;;7.75;4.53;;;7.90;99.90;;;;;;5044853;28;20025;-84
2023/10/20 05:28:17;;;;;;;7.05;4.25;;;7.50;99.90;;;;;;5031204;28;20033;-85
2023/10/20 05:30:45;;;;;;;6.47;3.80;;;7.50;99.90;;;;;;5046546;28;20629;-85
2023/10/20 05:33:12;;;;;;;6.85;4.07;;;8.20;99.90;;;;;;5066017;28;20072;-85
2023/10/20 05:35:42;;;;;;;8.43;4.10;;;7.00;99.90;;;;;;5059422;28;20132;-84
2023/10/20 05:38:09;;;;;;;9.63;3.65;;;7.50;99.90;;;;;;5041191;28;20051;-85
2023/10/20 05:40:36;;;;;;;7.60;4.03;;;8.20;99.90;;;;;;5043027;28;20100;-85
2023/10/20 05:43:05;;;;;;;7.78;4.28;;;7.50;99.90;;;;;;5046378;28;20808;-85
2023/10/20 05:45:41;;;;;;;7.65;3.97;;;7.90;99.90;;;;;;5043250;28;20029;-85
2023/10/20 05:48:09;;;;;;;12.18;3.75;;;7.50;99.90;;;;;;5043946;28;20052;-85
2023/10/20 05:50:37;;;;;;;6.05;3.50;;;7.50;99.90;;;;;;5038073;28;20041;-84
2023/10/20 05:53:05;;;;;;;5.45;3.28;;;8.00;99.90;;;;;;5038980;28;20048;-84
2023/10/20 05:55:36;;;;;;;7.28;3.67;;;7.50;99.90;;;;;;5044533;28;20041;-85
2023/10/20 05:58:03;;;;;;;6.55;3.47;;;7.60;99.90;;;;;;5039659;28;20483;-85
2023/10/20 06:00:30;;;;;;;7.22;3.30;;;7.50;99.90;;;;;;5035480;28;20541;-84
2023/10/20 06:02:56;;;;;;;5.88;3.35;;;7.50;99.90;;;;;;5039146;28;20041;-84
2023/10/20 06:05:23;;;;;;;6.93;3.50;;;7.90;99.90;;;;;;5042958;28;20033;-85
2023/10/20 06:07:50;;;;;;;5.65;3.20;;;7.90;99.90;;;;;;5056315;28;20586;-85
2023/10/20 06:10:22;;;;;;;5.93;3.10;;;7.60;99.90;;;;;;5039074;28;20120;-84
2023/10/20 06:12:53;;;;;;;5.55;3.22;;;7.50;99.90;;;;;;5036563;28;20040;-85
2023/10/20 06:15:21;;;;;;;5.80;2.75;;;7.60;99.90;;;;;;5042078;28;20037;-84
2023/10/20 06:17:52;;;;;;;4.85;2.53;;;7.80;99.90;;;;;;5048111;28;20041;-84
2023/10/20 06:20:19;;;;;;;5.13;2.90;;;7.60;99.90;;;;;;5041221;28;20041;-85
2023/10/20 06:22:46;;;;;;;6.40;2.92;;;8.20;99.90;;;;;;5052437;28;20048;-84
2023/10/20 06:25:12;;;;;;;4.65;2.38;;;7.50;99.90;;;;;;5045271;28;20495;-84
2023/10/20 06:27:43;;;;;;;6.00;2.65;;;7.60;99.90;;;;;;5038799;28;20041;-85
2023/10/20 06:30:16;;;;;;;5.38;2.53;;;7.50;99.90;;;;;;5063478;28;20037;-84
2023/10/20 06:32:44;;;;;;;4.50;2.03;;;7.50;99.90;;;;;;5061264;28;20044;-84
2023/10/20 06:35:13;;;;;;;4.25;2.33;;;7.50;99.90;;;;;;5065391;28;20048;-84
2023/10/20 06:40:25;;;;;;;5.97;2.10;;;7.50;99.90;;;;;;5056845;28;20099;-84
2023/10/20 06:42:52;;;;;;;4.07;1.90;;;7.50;99.90;;;;;;5046851;28;20458;-84
2023/10/20 06:45:19;;;;;;;4.90;2.15;;;7.50;99.90;;;;;;5052168;28;20045;-85
2023/10/20 06:47:46;;;;;;;3.88;2.08;;;7.40;99.90;;;;;;5049608;28;20044;-85
2023/10/20 06:50:13;;;;;;;4.03;1.95;;;7.70;99.90;;;;;;5040412;28;20507;-85
2023/10/20 06:52:40;;;;;;;3.53;1.75;;;7.40;99.90;;;;;;5041546;28;20671;-84
2023/10/20 06:55:07;;;;;;;4.88;1.92;;;7.40;99.90;;;;;;5055249;28;20037;-84
2023/10/20 06:57:34;;;;;;;4.75;2.15;;;7.40;99.90;;;;;;5044394;28;20067;-85
2023/10/20 07:00:02;;;;;;;4.10;1.85;;;7.40;99.90;;;;;;5045324;28;20056;-84
2023/10/20 07:02:29;;;;;;;3.65;1.63;;;7.70;99.90;;;;;;5047767;28;20506;-84
2023/10/20 07:04:56;;;;;;;3.67;1.83;;;7.30;99.90;;;;;;5055728;28;20045;-84
2023/10/20 07:07:22;;;;;;;3.65;1.70;;;7.90;99.90;;;;;;5055274;28;20090;-84
2023/10/20 07:09:49;;;;;;;3.80;1.70;;;7.30;99.90;;;;;;5053456;28;20542;-84
2023/10/20 07:12:16;;;;;;;3.65;1.85;;;7.30;99.90;;;;;;5044283;28;20037;-86
2023/10/20 07:14:45;;;;;;;4.22;1.77;;;7.30;99.90;;;;;;5053865;28;20041;-84
2023/10/20 07:17:12;;;;;;;4.65;2.15;;;7.30;99.90;;;;;;5055297;28;20041;-84
2023/10/20 07:19:38;;;;;;;7.55;2.05;;;7.20;99.90;;;;;;5052160;28;20388;-85
2023/10/20 07:22:05;;;;;;;4.68;2.25;;;7.80;99.90;;;;;;5042552;28;20050;-84
2023/10/20 07:24:33;;;;;;;3.95;2.05;;;7.60;99.90;;;;;;5048286;28;20083;-84
2023/10/20 07:27:01;;;;;;;4.95;2.00;;;7.90;99.90;;;;;;5038138;28;20036;-84
2023/10/20 07:29:28;;;;;;;4.82;2.28;;;7.20;99.90;;;;;;5037890;28;20045;-83
2023/10/20 07:31:55;;;;;;;4.07;2.25;;;7.30;99.90;;;;;;5035437;28;20053;-84
2023/10/20 07:34:22;;;;;;;5.70;2.25;;;7.70;99.90;;;;;;5062444;28;20045;-84
2023/10/20 07:36:49;;;;;;;4.55;2.30;;;7.10;99.90;;;;;;5064911;28;20094;-85
2023/10/20 07:39:18;;;;;;;6.72;2.42;;;7.10;99.90;;;;;;5069832;28;20045;-84
2023/10/20 07:41:45;;;;;;;6.05;2.33;;;7.10;99.90;;;;;;5048670;28;20033;-85
2023/10/20 07:44:12;;;;;;;4.80;2.53;;;7.10;99.90;;;;;;5040558;28;20038;-85
2023/10/20 07:46:41;;;;;;;4.68;2.58;;;7.10;99.90;;;;;;5059722;28;20043;-85
2023/10/20 07:49:11;;;;;;;6.22;2.83;;;7.10;99.90;;;;;;5063440;28;20522;-84
2023/10/20 07:51:39;;;;;;;6.35;2.83;;;7.20;99.90;;;;;;5068576;28;20063;-85
2023/10/20 07:54:08;;;;;;;7.90;2.92;;;7.10;99.90;;;;;;5051495;28;20045;-84
2023/10/20 07:56:35;;;;;;;6.15;2.80;;;7.10;99.90;;;;;;5039863;28;20037;-86
2023/10/20 07:59:03;;;;;;;5.13;2.88;;;7.10;99.90;;;;;;5047760;28;20052;-86
2023/10/20 08:01:30;;;;;;;6.60;2.90;;;7.70;99.90;;;;;;5047558;28;20037;-85
2023/10/20 08:03:57;;;;;;;6.22;3.13;;;7.30;99.90;;;;;;5041699;28;20829;-85
2023/10/20 08:06:24;;;;;;;5.40;2.67;;;7.50;99.90;;;;;;5045553;28;20033;-85
2023/10/20 08:08:52;;;;;;;5.10;2.50;;;7.00;99.90;;;;;;5041209;28;20052;-86
2023/10/20 08:11:19;;;;;;;6.35;3.42;;;7.20;99.90;;;;;;5038780;28;20151;-86
2023/10/20 08:13:50;;;;;;;5.65;2.75;;;7.00;99.90;;;;;;5048234;28;20057;-86
2023/10/20 08:16:20;;;;;;;4.85;2.75;;;6.90;99.90;;;;;;5050324;28;20049;-86
2023/10/20 08:18:48;;;;;;;5.70;2.90;;;7.60;99.90;;;;;;5059124;28;20053;-85
2023/10/20 08:21:16;;;;;;;5.40;2.60;;;7.30;99.90;;;;;;5039200;28;20118;-86
2023/10/20 08:23:43;;;;;;;5.00;2.45;;;6.90;99.90;;;;;;5061836;28;20025;-86
2023/10/20 08:26:21;;;;;;;9.90;3.00;;;6.90;99.90;;;;;;5049647;28;20107;-86
2023/10/20 08:28:49;;;;;;;5.07;2.20;;;6.90;99.90;;;;;;5041018;28;20086;-88
2023/10/20 08:31:17;;;;;;;5.20;2.45;;;7.50;99.90;;;;;;5050068;28;20045;-88
2023/10/20 08:33:44;;;;;;;4.60;2.38;;;6.90;99.90;;;;;;5058340;28;20152;-87
2023/10/20 08:36:15;;;;;;;5.47;2.80;;;6.90;99.90;;;;;;5043632;28;20116;-87
2023/10/20 08:38:43;;;;;;;5.55;2.60;;;6.90;99.90;;;;;;5054324;28;20462;-87
2023/10/20 08:41:13;;;;;;;5.20;2.47;;;7.70;99.90;;;;;;5038242;28;20041;-88
2023/10/20 08:43:41;;;;;;;4.85;2.25;;;6.90;99.90;;;;;;5043842;28;20515;-88
2023/10/20 08:46:09;;;;;;;4.75;2.20;;;7.40;99.90;;;;;;5053928;28;20060;-88
2023/10/20 08:48:39;;;;;;;5.38;2.20;;;6.90;99.90;;;;;;5045921;28;20445;-87
2023/10/20 08:51:07;;;;;;;4.50;2.28;;;7.60;99.90;;;;;;5066299;28;20051;-88
2023/10/20 08:53:36;;;;;;;7.15;2.30;;;7.20;99.90;;;;;;5047150;28;20548;-88
2023/10/20 08:56:04;;;;;;;5.40;2.15;;;7.60;99.90;;;;;;5046475;28;20154;-88
2023/10/20 08:58:31;;;;;;;5.00;2.40;;;6.80;99.90;;;;;;5044556;28;20522;-88
2023/10/20 09:00:59;;;;;;;4.03;2.15;;;7.30;99.90;;;;;;5053126;28;20042;-88
2023/10/20 09:03:27;;;;;;;4.75;2.10;;;6.80;99.90;;;;;;5040420;28;20037;-87
2023/10/20 09:06:02;;;;;;;3.95;2.00;;;6.80;99.90;;;;;;5054204;28;20067;-88
2023/10/20 09:08:29;;;;;;;;;;;7.50;99.90;;;;;;5044253;28;20044;-89
2023/10/20 09:10:56;;;;;;;4.07;1.90;;;6.80;99.90;;;;;;5039819;28;19924;-87
2023/10/20 09:13:30;;;;;;;3.80;1.83;;;7.10;99.90;;;;;;5071029;28;20051;-87
2023/10/20 09:15:56;;;;;;;3.92;2.00;;;6.80;99.90;;;;;;5038324;28;20033;-89
2023/10/20 09:18:23;;;;;;;4.75;1.88;;;6.80;99.90;;;;;;5044363;28;20052;-87
2023/10/20 09:20:50;;;;;;;4.35;1.67;;;6.80;99.90;;;;;;5043952;28;20128;-88
2023/10/20 09:23:17;;;;;;;3.28;1.58;;;7.50;99.90;;;;;;5057951;28;20108;-88
2023/10/20 09:25:44;;;;;;;3.13;1.40;;;6.80;99.90;;;;;;5039504;28;20034;-87
2023/10/20 09:28:10;;;;;;;4.25;1.60;;;7.00;99.90;;;;;;5033952;28;20124;-87
2023/10/20 09:30:38;;;;;;;3.70;1.30;;;7.50;99.90;;;;;;5042474;28;20124;-88
2023/10/20 09:33:05;;;;;;;4.57;1.52;;;6.70;99.90;;;;;;5046021;28;20041;-88
2023/10/20 09:35:39;;;;;;;3.20;1.30;;;6.60;99.90;;;;;;5054098;28;20043;-88
2023/10/20 09:38:15;;;;;;;3.03;1.35;;;6.70;99.90;;;;;;5040004;28;20045;-88
2023/10/20 09:40:43;;;;;;;2.78;1.30;;;6.70;99.90;;;;;;5048292;28;20037;-88
2023/10/20 09:43:26;;;;;;;3.10;1.40;;;6.80;99.90;;;;;;5054588;28;20039;-87
2023/10/20 09:46:10;;;;;;;2.30;1.17;;;6.70;99.90;;;;;;5054330;28;20037;-88
2023/10/20 09:48:40;;;;;;;2.70;1.10;;;6.80;99.90;;;;;;5054324;28;20110;-88
2023/10/20 09:51:08;;;;;;;2.40;1.40;;;6.60;99.90;;;;;;5056684;28;20072;-89
2023/10/20 09:53:36;;;;;;;2.85;1.05;;;7.20;99.90;;;;;;5054054;28;20044;-88
2023/10/20 09:56:04;;;;;;;4.22;1.20;;;6.70;99.90;;;;;;5041102;28;20041;-88
2023/10/20 09:58:34;;;;;;;2.28;1.08;;;6.80;99.90;;;;;;5066930;28;20069;-88
2023/10/20 10:01:02;;;;;;;2.95;1.20;;;7.00;99.90;;;;;;5052759;28;20037;-90
2023/10/20 10:03:42;;;;;;;3.15;1.00;;;7.20;99.90;;;;;;5048993;28;20064;-88
2023/10/20 10:06:10;;;;;;;2.83;1.20;;;6.60;99.90;;;;;;5050778;28;20524;-88
2023/10/20 10:08:39;;;;;;;9.77;3.15;;;7.30;99.90;;;;;;5042405;28;20041;-88
2023/10/20 10:11:39;;;;;;;2.83;1.15;;;6.60;99.90;;;;;;5051698;28;20419;-87
2023/10/20 10:14:07;;;;;;;1.98;1.05;;;6.80;99.90;;;;;;5008603;28;20081;-89
2023/10/20 10:16:54;;;;;;;1.42;0.80;;;6.80;99.90;;;;;;5044326;28;20048;-90
2023/10/20 10:19:25;;;;;;;2.60;1.10;;;6.60;99.90;;;;;;5036983;28;20045;-88
2023/10/20 10:21:56;;;;;;;2.60;1.15;;;7.20;99.90;;;;;;5050573;28;20042;-89
2023/10/20 10:24:25;;;;;;;3.33;1.10;;;6.60;99.90;;;;;;5054938;28;20111;-90
2023/10/20 10:26:57;;;;;;;1.92;0.90;;;6.60;99.90;;;;;;5051845;28;20041;-89
2023/10/20 10:30:09;;;;;;;2.30;1.00;;;6.60;99.90;;;;;;5051247;28;20092;-89
2023/10/20 10:32:52;;;;;;;2.55;1.17;;;6.60;99.90;;;;;;5063377;28;20044;-89
2023/10/20 10:35:19;;;;;;;2.60;1.00;;;6.80;99.90;;;;;;5052556;28;20411;-89
2023/10/20 10:37:45;;;;;;;3.45;1.20;;;6.60;99.90;;;;;;5048596;28;20048;-91
2023/10/20 10:40:15;;;;;;;2.15;1.00;;;6.60;99.90;;;;;;5055155;28;20041;-90
2023/10/20 10:42:50;;;;;;;2.00;1.08;;;6.60;99.90;;;;;;5047456;28;20038;-90
2023/10/20 10:45:24;;;;;;;3.35;1.13;;;6.50;99.90;;;;;;5050923;28;20073;-91
2023/10/20 10:48:12;;;;;;;2.70;1.00;;;6.50;99.90;;;;;;5054539;28;20071;-90
2023/10/20 10:50:43;;;;;;;2.10;1.00;;;6.50;99.90;;;;;;5053227;28;20049;-90
2023/10/20 10:53:12;;;;;;;2.15;1.00;;;6.70;99.90;;;;;;5062749;28;20037;-89
2023/10/20 10:55:40;;;;;;;2.40;1.00;;;6.80;99.90;;;;;;5071282;28;20064;-91
2023/10/20 10:58:12;;;;;;;2.40;1.05;;;6.50;99.90;;;;;;5056772;28;20364;-90
2023/10/20 11:00:42;;;;;;;2.72;1.00;;;6.50;99.90;;;;;;5038648;28;20045;-91
2023/10/20 11:03:09;;;;;;;3.35;0.90;;;7.10;99.90;;;;;;5025480;28;20558;-88
2023/10/20 11:05:37;;;;;;;2.15;1.00;;;6.50;99.90;;;;;;5037794;28;20040;-90
2023/10/20 11:08:09;;;;;;;2.83;1.25;;;7.00;99.90;;;;;;5035239;28;20060;-90
2023/10/20 11:10:38;;;;;;;1.80;1.13;;;6.40;99.90;;;;;;5037913;28;20033;-90
2023/10/20 11:13:10;;;;;;;4.00;1.42;;;7.00;99.90;;;;;;5037596;28;20041;-90
2023/10/20 11:15:39;;;;;;;8.00;3.40;;;6.40;99.90;;;;;;5037246;28;20117;-88
2023/10/20 11:18:07;;;;;;;3.13;1.60;;;7.00;99.90;;;;;;5041001;28;20038;-91
2023/10/20 11:20:37;;;;;;;3.65;1.50;;;6.30;99.90;;;;;;5030804;28;20446;-90
2023/10/20 11:23:08;;;;;;;3.25;1.50;;;7.10;99.90;;;;;;5029386;28;20495;-89
2023/10/20 11:25:36;;;;;;;1.50;0.90;;;6.40;99.90;;;;;;5026066;28;20042;-89
2023/10/20 11:28:03;;;;;;;4.97;2.08;;;6.40;99.90;;;;;;5030269;28;20087;-92
2023/10/20 11:30:35;;;;;;;3.00;1.58;;;6.40;99.90;;;;;;5017885;28;20096;-90
2023/10/20 11:33:03;;;;;;;3.80;2.22;;;6.30;99.90;;;;;;5018517;28;20133;-89
2023/10/20 11:35:30;;;;;;;4.38;2.42;;;6.40;99.90;;;;;;5029860;28;20042;-91
2023/10/20 11:37:58;;;;;;;6.82;3.33;;;7.00;99.90;;;;;;5022214;28;20066;-89
2023/10/20 11:40:28;;;;;;;4.80;2.72;;;6.80;99.90;;;;;;5031157;28;20045;-91
2023/10/20 11:42:58;;;;;;;5.07;3.28;;;6.40;99.90;;;;;;5033203;28;20125;-90
2023/10/20 11:45:25;;;;;;;4.90;2.88;;;6.60;99.90;;;;;;5030246;28;20041;-91
2023/10/20 11:47:51;;;;;;;4.97;2.90;;;6.40;99.90;;;;;;5040531;28;20060;-91
2023/10/20 11:50:19;;;;;;;6.97;4.03;;;6.90;99.90;;;;;;5023868;28;20034;-90
2023/10/20 11:52:45;;;;;;;9.40;5.60;;;6.70;99.90;;;;;;5038970;28;20045;-90
2023/10/20 11:55:12;;;;;;;5.18;3.03;;;6.40;99.90;;;;;;5037307;28;20071;-91
2023/10/20 11:57:39;;;;;;;4.25;2.53;;;6.40;99.90;;;;;;5028572;28;20046;-90
2023/10/20 12:00:09;;;;;;;3.60;2.00;;;6.40;99.90;;;;;;5042893;28;20064;-90
2023/10/20 12:02:40;;;;;;;2.83;1.40;;;6.40;99.90;;;;;;5052563;28;20065;-90
2023/10/20 12:05:07;;;;;;;4.03;2.38;;;6.40;99.90;;;;;;5071740;28;20495;-88
2023/10/20 12:07:34;;;;;;;5.10;2.17;;;6.90;99.90;;;;;;5052305;28;20399;-88
2023/10/20 12:10:05;;;;;;;3.63;1.40;;;6.40;99.90;;;;;;5042250;28;20045;-88
2023/10/20 12:12:32;;;;;;;3.55;1.60;;;6.40;99.90;;;;;;5056532;28;20046;-88
2023/10/20 12:15:02;;;;;;;3.88;1.70;;;6.40;99.90;;;;;;5039058;28;20127;-88
2023/10/20 12:17:29;;;;;;;3.95;1.90;;;6.40;99.90;;;;;;5048000;28;20048;-85
2023/10/20 12:19:56;;;;;;;4.63;1.65;;;6.60;99.90;;;;;;5051572;28;20387;-86
2023/10/20 12:22:23;;;;;;;2.88;1.40;;;6.40;99.90;;;;;;5067767;28;20041;-86
2023/10/20 12:24:50;;;;;;;4.03;2.10;;;7.00;99.90;;;;;;5038997;28;20037;-87
2023/10/20 12:27:17;;;;;;;9.80;6.55;;;6.60;99.90;;;;;;5050466;28;20037;-81
2023/10/20 12:29:45;;;;;;;4.90;3.17;;;6.40;99.90;;;;;;5050049;28;20389;-86
2023/10/20 12:32:12;;;;;;;3.42;1.50;;;6.40;99.90;;;;;;5055085;28;20037;-87
2023/10/20 12:34:39;;;;;;;3.05;1.30;;;7.40;99.90;;;;;;5040605;28;20045;-88
2023/10/20 12:37:05;;;;;;;3.13;1.20;;;6.50;99.90;;;;;;5060220;28;20083;-87
2023/10/20 12:39:33;;;;;;;2.05;1.02;;;6.40;99.90;;;;;;5035657;28;20034;-88
2023/10/20 12:42:03;;;;;;;2.13;1.10;;;7.00;99.90;;;;;;5053540;28;20042;-87
2023/10/20 12:44:30;;;;;;;1.92;1.00;;;6.60;99.90;;;;;;5032862;28;20512;-88
2023/10/20 12:46:57;;;;;;;1.67;1.00;;;6.80;99.90;;;;;;5033343;28;20068;-87
2023/10/20 12:49:24;;;;;;;15.20;10.70;;;6.40;99.90;;;;;;5066938;28;20526;-87
2023/10/20 12:51:50;;;;;;;4.75;1.65;;;6.40;99.90;;;;;;5037324;28;20034;-87
2023/10/20 12:54:17;;;;;;;4.88;2.15;;;6.50;99.90;;;;;;5053346;28;20128;-88
2023/10/20 12:56:44;;;;;;;2.55;1.45;;;7.00;99.90;;;;;;5048050;28;20041;-88
2023/10/20 12:59:10;;;;;;;4.63;2.20;;;6.40;99.90;;;;;;5030880;28;20096;-88
2023/10/20 13:01:37;;;;;;;3.10;1.63;;;6.40;99.90;;;;;;5043992;28;20053;-88
2023/10/20 13:04:04;;;;;;;2.83;1.42;;;6.40;99.90;;;;;;5060040;28;20123;-87
2023/10/20 13:06:31;;;;;;;4.57;1.98;;;6.40;99.90;;;;;;5026552;28;20444;-88
2023/10/20 13:08:57;;;;;;;4.57;2.03;;;6.50;99.90;;;;;;5043495;28;20128;-88
2023/10/20 13:11:24;;;;;;;2.67;1.60;;;6.70;99.90;;;;;;5038199;28;20040;-89
2023/10/20 13:13:51;;;;;;;4.28;1.67;;;6.40;99.90;;;;;;5036069;28;20407;-89
2023/10/20 13:16:17;;;;;;;2.97;1.35;;;6.40;99.90;;;;;;5039334;28;20565;-89
2023/10/20 13:18:44;;;;;;;3.63;1.95;;;6.40;99.90;;;;;;5051473;28;20037;-89
2023/10/20 13:21:11;;;;;;;2.70;1.33;;;6.40;99.90;;;;;;5034977;28;20581;-89
2023/10/20 13:23:38;;;;;;;3.42;1.30;;;6.40;99.90;;;;;;5044053;28;20056;-88
2023/10/20 13:26:05;;;;;;;3.33;1.65;;;6.40;99.90;;;;;;5038406;28;20034;-88
2023/10/20 13:28:35;;;;;;;4.10;1.80;;;6.90;99.90;;;;;;5045705;28;20569;-89
2023/10/20 13:31:09;;;;;;;5.38;2.58;;;6.40;99.90;;;;;;5051381;28;20037;-89
2023/10/20 13:33:36;;;;;;;3.47;1.50;;;6.40;99.90;;;;;;5046495;28;20503;-90